createdAt,value
2019-01-24T00:00:57.758Z,75.21
2019-01-24T00:01:57.623Z,75.00
2019-01-24T00:02:57.621Z,75.00
2019-01-24T00:03:57.623Z,74.90
2019-01-24T00:04:57.582Z,75.52
2019-01-24T00:05:57.588Z,75.00
2019-01-24T00:06:57.591Z,75.42
2019-01-24T00:07:57.608Z,75.52
2019-01-24T00:08:57.617Z,75.42
2019-01-24T00:09:57.552Z,74.90
2019-01-24T00:10:57.533Z,75.10
2019-01-24T00:11:57.511Z,75.21
2019-01-24T00:12:57.558Z,75.32
2019-01-24T00:13:57.537Z,75.10
2019-01-24T00:14:57.491Z,75.63
2019-01-24T00:15:57.471Z,75.10
2019-01-24T00:16:57.468Z,75.42
2019-01-24T00:17:57.470Z,75.18
2019-01-24T00:18:57.502Z,74.97
2019-01-24T00:19:57.460Z,74.68
2019-01-24T00:20:57.428Z,74.90
2019-01-24T00:21:57.419Z,75.21
2019-01-24T00:22:57.417Z,75.10
2019-01-24T00:23:57.389Z,75.32
2019-01-24T00:24:57.366Z,75.74
2019-01-24T00:25:57.370Z,75.84
2019-01-24T00:26:57.374Z,75.49
2019-01-24T00:27:57.337Z,75.32
2019-01-24T00:28:57.350Z,75.63
2019-01-24T00:29:57.321Z,75.63
2019-01-24T00:30:57.315Z,75.21
2019-01-24T00:31:57.307Z,75.07
2019-01-24T00:32:57.300Z,75.42
2019-01-24T00:33:57.307Z,75.07
2019-01-24T00:34:57.287Z,75.49
2019-01-24T00:35:57.255Z,75.49
2019-01-24T00:36:57.289Z,75.10
2019-01-24T00:37:57.234Z,75.07
2019-01-24T00:38:57.269Z,74.90
2019-01-24T00:39:57.265Z,75.10
2019-01-24T00:40:57.200Z,75.18
2019-01-24T00:41:57.208Z,75.70
2019-01-24T00:42:57.185Z,75.38
2019-01-24T00:43:57.173Z,75.49
2019-01-24T00:44:57.173Z,75.60
2019-01-24T00:45:57.162Z,75.81
2019-01-24T00:46:57.158Z,76.12
2019-01-24T00:47:57.129Z,75.70
2019-01-24T00:48:57.127Z,75.70
2019-01-24T00:49:57.125Z,75.28
2019-01-24T00:50:57.104Z,75.38
2019-01-24T00:51:57.203Z,75.60
2019-01-24T00:52:57.103Z,75.10
2019-01-24T00:53:57.091Z,74.79
2019-01-24T00:54:57.050Z,75.60
2019-01-24T00:55:57.069Z,75.74
2019-01-24T00:56:57.039Z,75.52
2019-01-24T00:57:57.059Z,75.70
2019-01-24T00:58:57.025Z,75.70
2019-01-24T00:59:57.004Z,75.91
2019-01-24T01:00:56.987Z,76.23
2019-01-24T01:01:56.999Z,75.95
2019-01-24T01:02:57.037Z,76.89
2019-01-24T01:03:57.016Z,75.49
2019-01-24T01:04:56.964Z,75.81
2019-01-24T01:05:56.944Z,75.38
2019-01-24T01:06:57.039Z,75.81
2019-01-24T01:07:56.920Z,76.12
2019-01-24T01:08:56.915Z,75.49
2019-01-24T01:09:56.938Z,75.49
2019-01-24T01:10:56.905Z,75.52
2019-01-24T01:11:56.883Z,75.95
2019-01-24T01:12:56.858Z,75.74
2019-01-24T01:13:56.847Z,75.52
2019-01-24T01:14:56.924Z,75.28
2019-01-24T01:15:56.840Z,75.49
2019-01-24T01:16:56.843Z,75.07
2019-01-24T01:17:56.828Z,75.49
2019-01-24T01:18:56.835Z,75.38
2019-01-24T01:19:56.814Z,75.42
2019-01-24T01:20:56.809Z,75.10
2019-01-24T01:21:56.804Z,75.70
2019-01-24T01:22:56.763Z,75.32
2019-01-24T01:23:56.763Z,75.74
2019-01-24T01:24:56.767Z,75.91
2019-01-24T01:25:56.849Z,75.70
2019-01-24T01:26:56.765Z,76.43
2019-01-24T01:27:56.798Z,76.12
2019-01-24T01:28:56.698Z,75.63
2019-01-24T01:29:56.707Z,76.15
2019-01-24T01:30:56.698Z,75.91
2019-01-24T01:31:56.838Z,75.91
2019-01-24T01:32:56.659Z,76.23
2019-01-24T01:33:56.670Z,76.75
2019-01-24T01:34:56.637Z,76.23
2019-01-24T01:35:56.631Z,75.84
2019-01-24T01:36:56.628Z,75.60
2019-01-24T01:37:56.615Z,75.60
2019-01-24T01:38:56.707Z,75.84
2019-01-24T01:39:56.594Z,76.23
2019-01-24T01:40:56.568Z,76.33
2019-01-24T01:41:56.574Z,75.81
2019-01-24T01:42:56.587Z,75.60
2019-01-24T01:43:56.536Z,75.49
2019-01-24T01:44:56.538Z,75.70
2019-01-24T01:45:56.519Z,76.05
2019-01-24T01:46:56.610Z,75.70
2019-01-24T01:47:56.510Z,75.91
2019-01-24T01:48:56.521Z,76.33
2019-01-24T01:49:56.478Z,76.43
2019-01-24T01:50:56.491Z,76.43
2019-01-24T01:51:56.471Z,76.43
2019-01-24T01:52:56.439Z,76.02
2019-01-24T01:53:56.490Z,76.54
2019-01-24T01:54:56.434Z,76.12
2019-01-24T01:55:56.438Z,76.65
2019-01-24T01:56:56.411Z,75.38
2019-01-24T01:57:56.382Z,75.60
2019-01-24T01:58:56.382Z,76.23
2019-01-24T01:59:56.395Z,76.23
2019-01-24T02:00:56.389Z,76.12
2019-01-24T02:01:56.402Z,76.75
2019-01-24T02:02:56.386Z,76.23
2019-01-24T02:03:56.359Z,76.43
2019-01-24T02:04:56.312Z,76.54
2019-01-24T02:05:56.303Z,76.75
2019-01-24T02:06:56.302Z,76.33
2019-01-24T02:07:56.281Z,76.23
2019-01-24T02:08:56.325Z,76.02
2019-01-24T02:09:56.292Z,76.86
2019-01-24T02:10:56.260Z,76.12
2019-01-24T02:11:56.277Z,76.75
2019-01-24T02:12:56.242Z,76.43
2019-01-24T02:13:56.221Z,76.68
2019-01-24T02:14:56.262Z,76.68
2019-01-24T02:15:56.237Z,77.07
2019-01-24T02:16:56.201Z,77.17
2019-01-24T02:17:56.219Z,76.54
2019-01-24T02:18:56.189Z,76.68
2019-01-24T02:19:56.197Z,75.81
2019-01-24T02:20:56.202Z,75.91
2019-01-24T02:21:56.189Z,76.86
2019-01-24T02:22:56.124Z,76.33
2019-01-24T02:23:56.131Z,76.54
2019-01-24T02:24:56.113Z,75.49
2019-01-24T02:25:56.149Z,75.49
2019-01-24T02:26:56.117Z,76.12
2019-01-24T02:27:56.083Z,76.65
2019-01-24T02:28:56.069Z,76.12
2019-01-24T02:29:56.078Z,75.81
2019-01-24T02:30:56.090Z,76.12
2019-01-24T02:31:56.051Z,76.05
2019-01-24T02:32:56.056Z,75.60
2019-01-24T02:33:56.036Z,76.12
2019-01-24T02:34:56.005Z,76.02
2019-01-24T02:35:56.066Z,76.57
2019-01-24T02:36:56.018Z,76.33
2019-01-24T02:37:55.991Z,76.75
2019-01-24T02:38:55.980Z,75.70
2019-01-24T02:39:55.956Z,75.63
2019-01-24T02:40:55.938Z,75.52
2019-01-24T02:41:55.985Z,75.42
2019-01-24T02:42:55.945Z,75.21
2019-01-24T02:43:55.919Z,75.60
2019-01-24T02:44:55.947Z,75.60
2019-01-24T02:45:55.973Z,75.32
2019-01-24T02:46:55.903Z,75.60
2019-01-24T02:47:55.871Z,75.84
2019-01-24T02:48:55.866Z,75.70
2019-01-24T02:49:55.860Z,75.60
2019-01-24T02:50:55.844Z,75.38
2019-01-24T02:51:55.861Z,75.38
2019-01-24T02:52:55.874Z,75.28
2019-01-24T02:53:55.842Z,75.91
2019-01-24T02:54:55.797Z,75.00
2019-01-24T02:55:55.795Z,75.38
2019-01-24T02:56:55.771Z,74.76
2019-01-24T02:57:55.794Z,74.55
2019-01-24T02:58:55.778Z,74.76
2019-01-24T02:59:55.765Z,74.76
2019-01-24T03:00:55.775Z,75.10
2019-01-24T03:01:55.738Z,74.90
2019-01-24T03:02:55.719Z,75.00
2019-01-24T03:03:55.693Z,74.90
2019-01-24T03:04:57.116Z,75.21
2019-01-24T03:05:55.684Z,74.79
2019-01-24T03:06:55.682Z,74.90
2019-01-24T03:07:55.693Z,75.00
2019-01-24T03:08:55.665Z,75.10
2019-01-24T03:09:55.679Z,75.52
2019-01-24T03:10:55.637Z,76.26
2019-01-24T03:11:55.710Z,75.52
2019-01-24T03:12:55.616Z,75.42
2019-01-24T03:13:55.603Z,75.52
2019-01-24T03:14:55.618Z,75.52
2019-01-24T03:15:55.585Z,75.42
2019-01-24T03:16:55.594Z,75.52
2019-01-24T03:17:55.560Z,75.52
2019-01-24T03:18:55.552Z,75.10
2019-01-24T03:19:55.535Z,75.32
2019-01-24T03:20:55.580Z,75.74
2019-01-24T03:21:55.518Z,76.15
2019-01-24T03:22:55.519Z,75.84
2019-01-24T03:23:55.578Z,75.95
2019-01-24T03:24:55.501Z,75.74
2019-01-24T03:25:55.473Z,75.95
2019-01-24T03:26:55.450Z,76.05
2019-01-24T03:27:55.444Z,75.74
2019-01-24T03:28:55.458Z,76.37
2019-01-24T03:29:55.539Z,76.47
2019-01-24T03:30:55.490Z,76.57
2019-01-24T03:31:55.453Z,76.79
2019-01-24T03:32:55.387Z,76.47
2019-01-24T03:33:55.392Z,76.57
2019-01-24T03:34:55.392Z,76.79
2019-01-24T03:35:55.373Z,76.79
2019-01-24T03:36:55.364Z,76.47
2019-01-24T03:37:55.347Z,76.89
2019-01-24T03:38:55.392Z,77.21
2019-01-24T03:39:55.415Z,77.84
2019-01-24T03:40:55.325Z,78.15
2019-01-24T03:41:55.292Z,78.36
2019-01-24T03:42:55.334Z,77.94
2019-01-24T03:43:55.326Z,78.05
2019-01-24T03:44:55.328Z,78.05
2019-01-24T03:45:55.273Z,77.84
2019-01-24T03:46:55.258Z,77.42
2019-01-24T03:47:55.250Z,78.26
2019-01-24T03:48:55.248Z,78.15
2019-01-24T03:49:55.333Z,78.26
2019-01-24T03:50:55.214Z,78.57
2019-01-24T03:51:55.196Z,78.99
2019-01-24T03:52:55.177Z,78.26
2019-01-24T03:53:55.177Z,78.89
2019-01-24T03:54:55.199Z,79.35
2019-01-24T03:55:55.181Z,79.41
2019-01-24T03:56:55.279Z,79.13
2019-01-24T03:57:55.157Z,79.94
2019-01-24T03:58:55.166Z,79.55
2019-01-24T03:59:55.136Z,79.77
2019-01-24T04:00:55.109Z,79.45
2019-01-24T04:01:55.140Z,79.97
2019-01-24T04:02:55.078Z,79.77
2019-01-24T04:03:55.091Z,80.08
2019-01-24T04:04:55.057Z,78.92
2019-01-24T04:05:55.067Z,78.50
2019-01-24T04:06:55.042Z,79.13
2019-01-24T04:07:55.063Z,80.08
2019-01-24T04:08:55.058Z,80.18
2019-01-24T04:09:55.032Z,79.97
2019-01-24T04:10:55.069Z,79.45
2019-01-24T04:11:55.025Z,79.77
2019-01-24T04:12:54.980Z,79.77
2019-01-24T04:13:54.993Z,79.97
2019-01-24T04:14:54.966Z,80.08
2019-01-24T04:15:54.962Z,78.82
2019-01-24T04:16:54.937Z,78.08
2019-01-24T04:17:54.951Z,78.50
2019-01-24T04:18:54.929Z,78.61
2019-01-24T04:19:54.919Z,78.29
2019-01-24T04:20:54.994Z,78.50
2019-01-24T04:21:54.896Z,77.87
2019-01-24T04:22:54.890Z,77.87
2019-01-24T04:23:54.895Z,78.29
2019-01-24T04:24:54.846Z,78.40
2019-01-24T04:25:54.831Z,78.71
2019-01-24T04:26:54.842Z,78.96
2019-01-24T04:27:54.827Z,79.24
2019-01-24T04:28:54.842Z,78.82
2019-01-24T04:29:54.824Z,78.44
2019-01-24T04:30:54.784Z,78.40
2019-01-24T04:31:54.794Z,78.71
2019-01-24T04:32:54.761Z,77.56
2019-01-24T04:33:54.763Z,78.19
2019-01-24T04:34:54.752Z,78.29
2019-01-24T04:35:54.759Z,77.76
2019-01-24T04:36:54.725Z,77.98
2019-01-24T04:37:54.730Z,78.29
2019-01-24T04:38:54.727Z,78.19
2019-01-24T04:39:54.712Z,78.19
2019-01-24T04:40:54.701Z,77.56
2019-01-24T04:41:54.689Z,77.76
2019-01-24T04:42:54.667Z,78.40
2019-01-24T04:43:54.668Z,77.56
2019-01-24T04:44:54.642Z,77.66
2019-01-24T04:45:54.740Z,78.29
2019-01-24T04:46:54.646Z,78.29
2019-01-24T04:47:54.648Z,78.92
2019-01-24T04:48:54.592Z,78.50
2019-01-24T04:49:54.585Z,78.29
2019-01-24T04:50:54.664Z,78.29
2019-01-24T04:51:54.610Z,76.93
2019-01-24T04:52:54.612Z,78.29
2019-01-24T04:53:54.547Z,78.29
2019-01-24T04:54:54.542Z,77.03
2019-01-24T04:55:54.527Z,77.14
2019-01-24T04:56:54.526Z,76.72
2019-01-24T04:57:55.009Z,76.82
2019-01-24T04:58:54.523Z,78.19
2019-01-24T04:59:54.484Z,77.87
2019-01-24T05:00:54.481Z,78.29
2019-01-24T05:01:54.490Z,77.87
2019-01-24T05:02:54.450Z,78.19
2019-01-24T05:03:54.497Z,77.87
2019-01-24T05:04:54.466Z,77.98
2019-01-24T05:05:54.427Z,78.08
2019-01-24T05:06:54.419Z,77.76
2019-01-24T05:07:54.399Z,78.08
2019-01-24T05:08:54.389Z,77.80
2019-01-24T05:09:54.446Z,77.80
2019-01-24T05:10:54.372Z,78.02
2019-01-24T05:11:54.365Z,77.80
2019-01-24T05:12:54.359Z,78.22
2019-01-24T05:13:54.358Z,78.64
2019-01-24T05:14:54.430Z,78.75
2019-01-24T05:15:54.338Z,78.64
2019-01-24T05:16:54.319Z,78.12
2019-01-24T05:17:54.296Z,78.64
2019-01-24T05:18:54.276Z,78.64
2019-01-24T05:19:54.283Z,78.33
2019-01-24T05:20:54.283Z,79.38
2019-01-24T05:21:54.254Z,78.85
2019-01-24T05:22:54.254Z,78.85
2019-01-24T05:23:54.225Z,79.17
2019-01-24T05:24:54.227Z,79.13
2019-01-24T05:25:54.215Z,78.22
2019-01-24T05:26:54.206Z,78.22
2019-01-24T05:27:54.200Z,78.96
2019-01-24T05:28:54.174Z,79.06
2019-01-24T05:29:54.183Z,79.27
2019-01-24T05:30:54.174Z,80.08
2019-01-24T05:31:54.140Z,80.11
2019-01-24T05:32:55.343Z,80.22
2019-01-24T05:33:54.194Z,79.17
2019-01-24T05:34:54.115Z,78.92
2019-01-24T05:35:54.115Z,79.17
2019-01-24T05:36:54.122Z,79.49
2019-01-24T05:37:54.075Z,80.22
2019-01-24T05:38:54.134Z,79.91
2019-01-24T05:39:54.064Z,79.91
2019-01-24T05:40:54.053Z,80.01
2019-01-24T05:41:54.059Z,79.91
2019-01-24T05:42:54.065Z,79.49
2019-01-24T05:43:54.020Z,80.11
2019-01-24T05:44:54.015Z,79.49
2019-01-24T05:45:54.026Z,79.94
2019-01-24T05:46:54.013Z,79.83
2019-01-24T05:47:54.003Z,79.73
2019-01-24T05:48:53.977Z,79.83
2019-01-24T05:49:53.970Z,80.05
2019-01-24T05:50:53.955Z,80.15
2019-01-24T05:51:53.941Z,80.15
2019-01-24T05:52:53.941Z,79.52
2019-01-24T05:53:53.918Z,80.15
2019-01-24T05:54:53.917Z,80.57
2019-01-24T05:55:53.914Z,80.05
2019-01-24T05:56:53.915Z,80.36
2019-01-24T05:57:53.907Z,80.57
2019-01-24T05:58:53.867Z,80.36
2019-01-24T05:59:53.860Z,80.57
2019-01-24T06:00:53.838Z,80.15
2019-01-24T06:01:53.880Z,80.68
2019-01-24T06:02:53.820Z,80.99
2019-01-24T06:03:53.798Z,81.10
2019-01-24T06:04:53.805Z,81.10
2019-01-24T06:05:53.807Z,81.31
2019-01-24T06:06:53.774Z,81.38
2019-01-24T06:07:53.848Z,80.96
2019-01-24T06:08:53.759Z,80.57
2019-01-24T06:09:53.752Z,80.01
2019-01-24T06:10:53.744Z,79.49
2019-01-24T06:11:53.734Z,80.01
2019-01-24T06:12:53.729Z,80.11
2019-01-24T06:13:53.708Z,80.15
2019-01-24T06:14:53.697Z,78.68
2019-01-24T06:15:53.678Z,78.96
2019-01-24T06:16:53.683Z,79.52
2019-01-24T06:17:53.681Z,79.31
2019-01-24T06:18:53.656Z,80.15
2019-01-24T06:19:53.642Z,79.52
2019-01-24T06:20:53.622Z,78.78
2019-01-24T06:21:53.620Z,79.31
2019-01-24T06:22:53.621Z,79.31
2019-01-24T06:23:53.666Z,78.58
2019-01-24T06:24:53.583Z,78.36
2019-01-24T06:25:53.577Z,78.47
2019-01-24T06:26:53.575Z,79.00
2019-01-24T06:27:53.551Z,78.36
2019-01-24T06:28:53.554Z,78.89
2019-01-24T06:29:53.541Z,79.31
2019-01-24T06:30:53.529Z,78.68
2019-01-24T06:31:53.534Z,79.21
2019-01-24T06:32:53.514Z,80.15
2019-01-24T06:33:53.491Z,79.83
2019-01-24T06:34:53.497Z,79.63
2019-01-24T06:35:53.466Z,80.26
2019-01-24T06:36:53.460Z,79.83
2019-01-24T06:37:53.452Z,79.83
2019-01-24T06:38:53.433Z,79.83
2019-01-24T06:39:53.446Z,80.05
2019-01-24T06:40:53.439Z,80.26
2019-01-24T06:41:53.410Z,79.94
2019-01-24T06:42:53.415Z,80.15
2019-01-24T06:43:53.525Z,80.26
2019-01-24T06:44:53.376Z,80.26
2019-01-24T06:45:53.416Z,79.94
2019-01-24T06:46:53.353Z,80.26
2019-01-24T06:47:53.337Z,79.94
2019-01-24T06:48:53.346Z,79.94
2019-01-24T06:49:53.422Z,79.83
2019-01-24T06:50:53.335Z,80.05
2019-01-24T06:51:53.337Z,80.15
2019-01-24T06:52:53.306Z,80.15
2019-01-24T06:53:53.305Z,80.61
2019-01-24T06:54:53.313Z,80.47
2019-01-24T06:55:53.270Z,80.57
2019-01-24T06:56:53.255Z,80.08
2019-01-24T06:57:53.248Z,80.26
2019-01-24T06:58:53.240Z,80.26
2019-01-24T06:59:53.209Z,80.19
2019-01-24T07:00:53.213Z,80.05
2019-01-24T07:01:53.210Z,80.51
2019-01-24T07:02:53.213Z,80.15
2019-01-24T07:03:53.176Z,80.26
2019-01-24T07:04:53.158Z,80.51
2019-01-24T07:05:55.500Z,80.47
2019-01-24T07:06:53.154Z,80.36
2019-01-24T07:07:53.132Z,80.40
2019-01-24T07:08:53.158Z,79.98
2019-01-24T07:09:53.111Z,79.98
2019-01-24T07:10:53.098Z,79.73
2019-01-24T07:11:53.100Z,80.05
2019-01-24T07:12:53.093Z,80.05
2019-01-24T07:13:53.078Z,80.15
2019-01-24T07:14:53.068Z,79.83
2019-01-24T07:15:53.058Z,79.77
2019-01-24T07:16:53.081Z,80.29
2019-01-24T07:17:53.046Z,79.98
2019-01-24T07:18:53.844Z,79.94
2019-01-24T07:19:53.018Z,80.29
2019-01-24T07:20:53.003Z,80.26
2019-01-24T07:21:53.016Z,79.94
2019-01-24T07:22:53.008Z,80.26
2019-01-24T07:23:52.991Z,80.15
2019-01-24T07:24:52.990Z,80.36
2019-01-24T07:25:52.974Z,80.08
2019-01-24T07:26:53.010Z,79.94
2019-01-24T07:27:52.941Z,80.29
2019-01-24T07:28:52.971Z,80.36
2019-01-24T07:29:52.904Z,80.61
2019-01-24T07:30:52.934Z,80.71
2019-01-24T07:31:52.892Z,79.98
2019-01-24T07:32:53.007Z,79.83
2019-01-24T07:33:52.886Z,80.29
2019-01-24T07:34:52.877Z,80.08
2019-01-24T07:35:52.871Z,79.98
2019-01-24T07:36:52.836Z,80.08
2019-01-24T07:37:52.862Z,80.29
2019-01-24T07:38:52.829Z,80.05
2019-01-24T07:39:52.851Z,80.57
2019-01-24T07:40:52.849Z,79.94
2019-01-24T07:41:52.819Z,79.73
2019-01-24T07:42:52.799Z,79.73
2019-01-24T07:43:52.799Z,79.87
2019-01-24T07:44:52.781Z,79.98
2019-01-24T07:45:52.753Z,79.98
2019-01-24T07:46:52.729Z,79.98
2019-01-24T07:47:52.767Z,79.77
2019-01-24T07:48:52.751Z,80.19
2019-01-24T07:49:52.709Z,80.05
2019-01-24T07:50:52.684Z,79.31
2019-01-24T07:51:52.668Z,79.45
2019-01-24T07:52:52.693Z,80.08
2019-01-24T07:53:52.682Z,80.08
2019-01-24T07:54:52.664Z,79.83
2019-01-24T07:55:52.648Z,79.21
2019-01-24T07:56:52.621Z,79.83
2019-01-24T07:57:52.608Z,79.98
2019-01-24T07:58:52.608Z,78.40
2019-01-24T07:59:52.602Z,78.92
2019-01-24T08:00:52.590Z,79.31
2019-01-24T08:01:52.643Z,79.98
2019-01-24T08:02:52.606Z,79.31
2019-01-24T08:03:52.566Z,79.24
2019-01-24T08:04:52.670Z,79.03
2019-01-24T08:05:52.585Z,79.35
2019-01-24T08:06:52.518Z,80.40
2019-01-24T08:07:52.511Z,79.98
2019-01-24T08:08:52.516Z,79.87
2019-01-24T08:09:52.485Z,79.87
2019-01-24T08:10:52.537Z,79.31
2019-01-24T08:11:52.492Z,80.08
2019-01-24T08:12:52.448Z,80.26
2019-01-24T08:13:52.481Z,79.83
2019-01-24T08:14:52.456Z,79.63
2019-01-24T08:15:52.498Z,79.21
2019-01-24T08:16:52.404Z,79.24
2019-01-24T08:17:52.440Z,79.24
2019-01-24T08:18:52.418Z,80.05
2019-01-24T08:19:52.388Z,79.66
2019-01-24T08:20:52.392Z,79.98
2019-01-24T08:21:52.408Z,80.29
2019-01-24T08:22:52.366Z,80.15
2019-01-24T08:23:52.347Z,79.98
2019-01-24T08:24:52.340Z,80.51
2019-01-24T08:25:52.316Z,80.57
2019-01-24T08:26:52.339Z,80.05
2019-01-24T08:27:52.314Z,79.83
2019-01-24T08:28:52.310Z,79.94
2019-01-24T08:29:52.292Z,80.05
2019-01-24T08:30:52.262Z,79.94
2019-01-24T08:31:52.283Z,79.83
2019-01-24T08:32:52.341Z,80.01
2019-01-24T08:33:52.306Z,79.80
2019-01-24T08:34:52.280Z,80.01
2019-01-24T08:35:52.247Z,79.91
2019-01-24T08:36:52.209Z,80.01
2019-01-24T08:37:52.202Z,80.01
2019-01-24T08:38:52.195Z,80.11
2019-01-24T08:39:52.189Z,79.91
2019-01-24T08:40:52.198Z,79.80
2019-01-24T08:41:52.169Z,79.49
2019-01-24T08:42:52.155Z,79.38
2019-01-24T08:43:52.148Z,78.96
2019-01-24T08:44:52.138Z,79.27
2019-01-24T08:45:52.130Z,80.11
2019-01-24T08:46:52.124Z,80.01
2019-01-24T08:47:52.102Z,79.17
2019-01-24T08:48:52.078Z,79.49
2019-01-24T08:49:52.088Z,80.01
2019-01-24T08:50:52.056Z,79.45
2019-01-24T08:51:52.071Z,79.27
2019-01-24T08:52:52.057Z,79.80
2019-01-24T08:53:52.027Z,79.13
2019-01-24T08:54:52.043Z,78.33
2019-01-24T08:55:52.047Z,78.54
2019-01-24T08:56:52.036Z,78.75
2019-01-24T08:57:52.002Z,80.01
2019-01-24T08:58:51.992Z,79.77
2019-01-24T08:59:51.960Z,78.33
2019-01-24T09:00:51.992Z,79.27
2019-01-24T09:01:51.970Z,79.17
2019-01-24T09:02:51.971Z,79.49
2019-01-24T09:03:51.947Z,80.01
2019-01-24T09:04:51.933Z,79.80
2019-01-24T09:05:51.932Z,79.80
2019-01-24T09:06:51.917Z,79.80
2019-01-24T09:07:51.935Z,79.73
2019-01-24T09:08:51.884Z,79.69
2019-01-24T09:09:51.869Z,80.26
2019-01-24T09:10:51.848Z,80.15
2019-01-24T09:11:51.843Z,80.54
2019-01-24T09:12:51.847Z,80.85
2019-01-24T09:13:51.846Z,80.89
2019-01-24T09:14:51.802Z,81.41
2019-01-24T09:15:51.810Z,81.52
2019-01-24T09:16:51.805Z,81.59
2019-01-24T09:17:51.799Z,81.80
2019-01-24T09:18:51.764Z,82.01
2019-01-24T09:19:51.786Z,82.32
2019-01-24T09:20:51.758Z,82.11
2019-01-24T09:21:51.827Z,82.43
2019-01-24T09:22:55.465Z,82.15
2019-01-24T09:23:51.737Z,81.80
2019-01-24T09:24:51.713Z,82.43
2019-01-24T09:25:51.726Z,82.43
2019-01-24T09:26:51.684Z,82.46
2019-01-24T09:27:51.731Z,82.01
2019-01-24T09:28:51.651Z,82.22
2019-01-24T09:29:51.669Z,82.64
2019-01-24T09:30:51.636Z,83.06
2019-01-24T09:31:51.627Z,82.75
2019-01-24T09:32:51.626Z,82.75
2019-01-24T09:33:51.605Z,83.10
2019-01-24T09:34:51.602Z,83.94
2019-01-24T09:35:51.595Z,83.83
2019-01-24T09:36:51.584Z,83.83
2019-01-24T09:37:51.576Z,84.47
2019-01-24T09:38:51.549Z,84.50
2019-01-24T09:39:51.558Z,84.99
2019-01-24T09:40:51.540Z,84.99
2019-01-24T09:41:51.696Z,84.99
2019-01-24T09:42:51.538Z,85.24
2019-01-24T09:43:51.558Z,85.03
2019-01-24T09:44:51.502Z,85.24
2019-01-24T09:45:51.501Z,85.77
2019-01-24T09:46:51.472Z,85.87
2019-01-24T09:47:51.485Z,85.83
2019-01-24T09:48:51.462Z,86.19
2019-01-24T09:49:51.454Z,86.71
2019-01-24T09:50:51.472Z,86.51
2019-01-24T09:51:51.427Z,87.41
2019-01-24T09:52:51.431Z,87.55
2019-01-24T09:53:51.487Z,86.71
2019-01-24T09:54:51.424Z,86.88
2019-01-24T09:55:51.460Z,87.10
2019-01-24T09:56:51.388Z,87.24
2019-01-24T09:57:51.370Z,87.76
2019-01-24T09:58:51.415Z,87.93
2019-01-24T09:59:51.351Z,87.30
2019-01-24T10:00:51.327Z,86.04
2019-01-24T10:01:51.317Z,85.52
2019-01-24T10:02:51.387Z,86.51
2019-01-24T10:03:51.297Z,86.61
2019-01-24T10:04:51.296Z,86.29
2019-01-24T10:05:51.279Z,86.40
2019-01-24T10:06:51.260Z,86.93
2019-01-24T10:07:51.288Z,86.82
2019-01-24T10:08:51.242Z,86.61
2019-01-24T10:09:51.280Z,86.36
2019-01-24T10:10:51.251Z,85.55
2019-01-24T10:11:51.270Z,85.66
2019-01-24T10:12:51.277Z,85.83
2019-01-24T10:13:51.209Z,86.88
2019-01-24T10:14:51.195Z,87.87
2019-01-24T10:15:51.241Z,87.13
2019-01-24T10:16:51.246Z,88.29
2019-01-24T10:17:51.152Z,88.29
2019-01-24T10:18:51.136Z,88.50
2019-01-24T10:19:51.132Z,89.51
2019-01-24T10:20:51.102Z,89.45
2019-01-24T10:21:51.105Z,89.98
2019-01-24T10:22:51.118Z,89.98
2019-01-24T10:23:51.100Z,89.62
2019-01-24T10:24:51.086Z,89.83
2019-01-24T10:25:51.143Z,89.94
2019-01-24T10:26:51.045Z,90.29
2019-01-24T10:27:51.074Z,90.71
2019-01-24T10:28:51.046Z,90.88
2019-01-24T10:29:51.016Z,90.88
2019-01-24T10:30:51.011Z,90.14
2019-01-24T10:31:51.012Z,90.25
2019-01-24T10:32:51.055Z,89.58
2019-01-24T10:33:50.997Z,89.30
2019-01-24T10:34:50.977Z,89.83
2019-01-24T10:35:50.978Z,88.99
2019-01-24T10:36:50.987Z,88.78
2019-01-24T10:37:50.969Z,88.99
2019-01-24T10:38:50.945Z,89.26
2019-01-24T10:39:50.939Z,88.99
2019-01-24T10:40:50.922Z,88.46
2019-01-24T10:41:50.895Z,88.57
2019-01-24T10:42:50.899Z,88.04
2019-01-24T10:43:50.930Z,88.25
2019-01-24T10:44:50.855Z,88.25
2019-01-24T10:45:50.847Z,88.46
2019-01-24T10:46:50.853Z,88.32
2019-01-24T10:47:50.886Z,88.32
2019-01-24T10:48:50.851Z,87.90
2019-01-24T10:49:50.820Z,87.90
2019-01-24T10:50:50.817Z,88.49
2019-01-24T10:51:50.807Z,88.28
2019-01-24T10:52:50.777Z,88.59
2019-01-24T10:53:50.793Z,87.16
2019-01-24T10:54:50.764Z,87.58
2019-01-24T10:55:50.745Z,88.32
2019-01-24T10:56:50.735Z,87.90
2019-01-24T10:57:50.737Z,88.15
2019-01-24T10:58:50.814Z,88.53
2019-01-24T10:59:50.734Z,88.95
2019-01-24T11:00:50.729Z,89.47
2019-01-24T11:01:50.699Z,90.00
2019-01-24T11:02:50.692Z,89.47
2019-01-24T11:03:50.686Z,89.96
2019-01-24T11:04:50.689Z,90.11
2019-01-24T11:05:50.643Z,89.96
2019-01-24T11:06:50.669Z,89.86
2019-01-24T11:07:50.657Z,90.17
2019-01-24T11:08:50.631Z,88.91
2019-01-24T11:09:50.621Z,88.70
2019-01-24T11:10:50.619Z,87.44
2019-01-24T11:11:50.574Z,87.44
2019-01-24T11:12:50.569Z,87.48
2019-01-24T11:13:50.551Z,87.44
2019-01-24T11:14:50.550Z,87.37
2019-01-24T11:15:50.601Z,87.48
2019-01-24T11:16:50.521Z,87.37
2019-01-24T11:17:50.520Z,87.41
2019-01-24T11:18:50.501Z,87.48
2019-01-24T11:19:50.495Z,87.79
2019-01-24T11:20:50.482Z,88.42
2019-01-24T11:21:50.496Z,88.53
2019-01-24T11:22:50.478Z,88.00
2019-01-24T11:23:50.513Z,88.07
2019-01-24T11:24:50.493Z,88.17
2019-01-24T11:25:50.443Z,87.90
2019-01-24T11:26:50.457Z,87.68
2019-01-24T11:27:50.427Z,87.37
2019-01-24T11:28:50.417Z,87.54
2019-01-24T11:29:50.397Z,87.37
2019-01-24T11:30:50.405Z,88.07
2019-01-24T11:31:50.375Z,87.23
2019-01-24T11:32:50.358Z,87.54
2019-01-24T11:33:50.361Z,87.33
2019-01-24T11:34:50.353Z,87.44
2019-01-24T11:35:50.363Z,87.44
2019-01-24T11:36:56.893Z,86.70
2019-01-24T11:37:51.314Z,86.28
2019-01-24T11:38:50.318Z,86.60
2019-01-24T11:39:50.313Z,87.33
2019-01-24T11:40:50.291Z,87.12
2019-01-24T11:41:50.304Z,87.75
2019-01-24T11:42:50.249Z,87.85
2019-01-24T11:43:50.233Z,87.33
2019-01-24T11:44:50.248Z,87.02
2019-01-24T11:45:50.233Z,86.80
2019-01-24T11:46:50.236Z,86.38
2019-01-24T11:47:50.203Z,86.66
2019-01-24T11:48:50.238Z,86.98
2019-01-24T11:49:50.197Z,87.08
2019-01-24T11:50:51.162Z,87.19
2019-01-24T11:51:50.191Z,87.08
2019-01-24T11:52:50.174Z,86.41
2019-01-24T11:53:53.204Z,86.41
2019-01-24T11:54:50.140Z,86.10
2019-01-24T11:55:50.143Z,86.20
2019-01-24T11:56:50.096Z,85.05
2019-01-24T11:57:50.088Z,85.47
2019-01-24T11:58:50.092Z,85.89
2019-01-24T11:59:50.101Z,86.30
2019-01-24T12:00:50.062Z,85.47
2019-01-24T12:01:50.083Z,85.25
2019-01-24T12:02:50.089Z,85.05
2019-01-24T12:03:50.041Z,85.25
2019-01-24T12:04:50.026Z,85.57
2019-01-24T12:05:50.051Z,85.36
2019-01-24T12:06:50.010Z,86.62
2019-01-24T12:07:50.055Z,86.41
2019-01-24T12:08:50.005Z,86.30
2019-01-24T12:09:49.985Z,86.41
2019-01-24T12:10:49.980Z,87.04
2019-01-24T12:11:49.958Z,86.62
2019-01-24T12:12:50.082Z,86.66
2019-01-24T12:13:49.951Z,87.04
2019-01-24T12:14:49.938Z,86.41
2019-01-24T12:15:49.918Z,86.45
2019-01-24T12:16:49.914Z,86.66
2019-01-24T12:17:49.895Z,87.19
2019-01-24T12:18:49.921Z,87.67
2019-01-24T12:19:49.877Z,87.50
2019-01-24T12:20:49.845Z,86.55
2019-01-24T12:21:49.907Z,86.66
2019-01-24T12:22:49.837Z,86.55
2019-01-24T12:23:49.870Z,87.19
2019-01-24T12:24:49.811Z,87.71
2019-01-24T12:25:49.816Z,87.29
2019-01-24T12:26:49.807Z,86.35
2019-01-24T12:27:49.818Z,85.50
2019-01-24T12:28:49.801Z,85.55
2019-01-24T12:29:49.792Z,85.50
2019-01-24T12:30:49.754Z,85.72
2019-01-24T12:31:49.744Z,86.24
2019-01-24T12:32:49.724Z,85.50
2019-01-24T12:33:49.743Z,85.36
2019-01-24T12:34:49.754Z,85.15
2019-01-24T12:35:49.701Z,84.31
2019-01-24T12:36:49.694Z,83.68
2019-01-24T12:37:49.691Z,83.22
2019-01-24T12:38:49.810Z,82.39
2019-01-24T12:39:49.684Z,80.71
2019-01-24T12:40:49.647Z,80.91
2019-01-24T12:41:49.675Z,79.76
2019-01-24T12:42:49.617Z,79.66
2019-01-24T12:43:49.635Z,80.29
2019-01-24T12:44:49.627Z,78.61
2019-01-24T12:45:49.630Z,79.97
2019-01-24T12:46:49.594Z,79.66
2019-01-24T12:47:49.663Z,78.29
2019-01-24T12:48:49.585Z,79.66
2019-01-24T12:49:49.545Z,79.93
2019-01-24T12:50:49.549Z,79.72
2019-01-24T12:51:49.538Z,79.10
2019-01-24T12:52:49.523Z,78.99